Time;durP1;ratioP1;P1;durP2;ratioP2;P2;SDS_P1;SDS_P2;PMS_P1;PMS_P2;Temp;Humidity;BMP_temperature;BMP_pressure;BME280_temperature;BME280_humidity;BME280_pressure;Samples;Min_cycle;Max_cycle;Signal;HPM_P1;HPM_P2
2022/05/28 00:01:22;;;;;;;;;5.33;4.00;;;;;16.04;99.33;100977.81;6391516;22;45274;-92
2022/05/28 00:03:48;;;;;;;;;2.00;2.00;;;;;16.03;99.40;100975.13;6364756;22;45427;-92
2022/05/28 00:06:22;;;;;;;;;5.00;3.67;;;;;15.98;100.00;100972.34;6364929;22;46970;-92
2022/05/28 00:08:48;;;;;;;;;5.33;5.33;;;;;15.91;100.00;100960.72;6364921;22;45438;-92
2022/05/28 00:11:21;;;;;;;;;3.00;3.00;;;;;15.92;100.00;100961.59;6364357;22;45408;-92
2022/05/28 00:13:48;;;;;;;;;4.33;4.00;;;;;15.82;100.00;100944.59;6364786;22;45400;-92
2022/05/28 00:16:14;;;;;;;;;5.00;4.00;;;;;15.81;100.00;100945.44;6366677;22;47020;-92
2022/05/28 00:18:40;;;;;;;;;3.67;3.67;;;;;15.88;100.00;100959.72;6364319;22;45348;-92
2022/05/28 00:21:10;;;;;;;;;5.00;4.00;;;;;15.88;100.00;100968.56;6364509;22;45389;-92
2022/05/28 00:23:37;;;;;;;;;3.67;3.67;;;;;15.78;100.00;100946.25;6365514;22;45307;-93
2022/05/28 00:26:03;;;;;;;;;5.33;3.00;;;;;15.80;100.00;100957.75;6367502;22;47072;-92
2022/05/28 00:28:29;;;;;;;;;3.33;3.33;;;;;15.81;100.00;100962.22;6367702;22;45400;-93
2022/05/28 00:30:54;;;;;;;;;6.00;4.33;;;;;15.82;100.00;100960.47;6367404;22;45460;-92
2022/05/28 00:33:19;;;;;;;;;3.33;3.33;;;;;15.68;100.00;100936.25;6370999;22;45410;-92
2022/05/28 00:35:45;;;;;;;;;4.67;4.00;;;;;15.71;100.00;100944.28;6369759;22;45390;-92
2022/05/28 00:38:10;;;;;;;;;3.00;3.00;;;;;15.61;100.00;100933.47;6364214;22;45406;-90
2022/05/28 00:40:36;;;;;;;;;7.67;5.00;;;;;15.69;100.00;100956.59;6363015;22;45370;-92
2022/05/28 00:43:05;;;;;;;;;6.33;4.00;;;;;15.66;100.00;100949.47;6363107;22;45333;-93
2022/05/28 00:45:32;;;;;;;;;5.00;5.00;;;;;15.63;100.00;100946.72;6366186;22;45371;-91
2022/05/28 00:48:02;;;;;;;;;8.67;4.00;;;;;15.50;100.00;100926.97;6364239;22;45682;-91
2022/05/28 00:50:28;;;;;;;;;3.00;3.00;;;;;15.53;100.00;100942.94;6363943;22;45284;-92
2022/05/28 00:52:53;;;;;;;;;4.67;4.00;;;;;15.55;100.00;100943.88;6364403;22;45264;-92
2022/05/28 00:55:19;;;;;;;;;5.67;4.00;;;;;15.46;100.00;100938.31;6364896;22;45704;-92
2022/05/28 00:57:46;;;;;;;;;4.00;4.00;;;;;15.50;100.00;100942.84;6364491;22;45515;-92
2022/05/28 01:00:15;;;;;;;;;4.00;4.00;;;;;15.38;100.00;100943.41;6364533;22;45381;-92
2022/05/28 01:02:55;;;;;;;;;5.00;3.67;;;;;15.43;100.00;100943.53;6364285;22;45339;-92
2022/05/28 01:05:47;;;;;;;;;5.33;4.33;;;;;15.40;100.00;100949.63;6364030;22;46151;-92
2022/05/28 01:08:24;;;;;;;;;4.00;3.00;;;;;15.35;100.00;100954.78;6357896;22;45534;-91
2022/05/28 01:11:02;;;;;;;;;4.67;4.67;;;;;15.32;100.00;100944.13;6363836;22;45267;-92
2022/05/28 01:13:34;;;;;;;;;5.67;4.67;;;;;15.24;100.00;100943.88;6363800;22;45416;-92
2022/05/28 01:16:08;;;;;;;;;3.00;3.00;;;;;15.18;100.00;100927.81;6369724;22;47423;-91
2022/05/28 01:18:41;;;;;;;;;4.00;4.00;;;;;15.20;100.00;100939.38;6372796;22;46026;-91
2022/05/28 01:21:15;;;;;;;;;2.00;2.00;;;;;15.17;100.00;100934.88;6401166;22;45341;-92
2022/05/28 01:23:51;;;;;;;;;8.00;5.00;;;;;15.09;100.00;100925.84;6373818;22;45356;-92
2022/05/28 01:26:23;;;;;;;;;3.00;3.00;;;;;15.15;100.00;100936.56;6365797;22;47252;-92
2022/05/28 01:29:10;;;;;;;;;5.33;3.67;;;;;15.06;100.00;100931.03;6365557;22;45444;-92
2022/05/28 01:31:37;;;;;;;;;3.67;3.33;;;;;15.04;100.00;100930.09;6390661;22;45529;-92
2022/05/28 01:34:06;;;;;;;;;6.00;5.00;;;;;14.97;100.00;100919.31;6390652;22;46194;-93
2022/05/28 01:36:34;;;;;;;;;10.00;4.00;;;;;15.04;100.00;100936.28;6363536;22;47651;-92
2022/05/28 01:39:00;;;;;;;;;4.00;3.00;;;;;15.01;100.00;100922.97;6365766;22;45358;-92
2022/05/28 01:41:29;;;;;;;;;3.67;3.67;;;;;15.00;100.00;100931.72;6363336;22;45512;-93
2022/05/28 01:43:56;;;;;;;;;3.33;3.33;;;;;14.98;100.00;100930.78;6365263;22;45613;-93
2022/05/28 01:46:27;;;;;;;;;3.00;3.00;;;;;14.84;100.00;100915.38;6363833;22;47653;-92
2022/05/28 01:48:54;;;;;;;;;3.33;3.33;;;;;14.87;100.00;100919.88;6364714;22;45655;-92
2022/05/28 01:51:23;;;;;;;;;6.67;3.00;;;;;14.85;100.00;100919.81;6365077;22;45358;-92
2022/05/28 01:54:08;;;;;;;;;5.33;3.67;;;;;14.83;100.00;100915.34;6364647;22;45512;-92
2022/05/28 01:56:35;;;;;;;;;6.00;3.00;;;;;14.80;100.00;100920.50;6390181;22;47373;-93
2022/05/28 01:59:00;;;;;;;;;7.33;2.33;;;;;14.80;100.00;100918.78;6364443;22;45444;-91
2022/05/28 02:01:27;;;;;;;;;6.00;4.33;;;;;14.73;100.00;100911.50;6365325;22;45340;-93
2022/05/28 02:04:00;;;;;;;;;8.33;4.33;;;;;14.80;100.00;100921.41;6395784;22;45627;-92
2022/05/28 02:06:26;;;;;;;;;5.33;3.67;;;;;14.74;100.00;100913.31;6371596;22;47293;-92
2022/05/28 02:08:55;;;;;;;;;4.00;4.00;;;;;14.75;100.00;100915.09;6373106;22;45539;-92
2022/05/28 02:11:34;;;;;;;;;4.33;3.33;;;;;14.65;100.00;100900.72;6375020;22;45325;-93
2022/05/28 02:14:18;;;;;;;;;5.00;3.00;;;;;14.57;100.00;100894.28;6373892;22;45521;-93
2022/05/28 02:16:43;;;;;;;;;3.33;3.33;;;;;14.67;100.00;100911.31;6367117;22;45650;-93
2022/05/28 02:19:20;;;;;;;;;5.00;3.33;;;;;14.63;100.00;100900.66;6364818;22;45404;-92
2022/05/28 02:22:26;;;;;;;;;4.00;4.00;;;;;14.56;100.00;100901.31;6364714;22;45540;-92
2022/05/28 02:24:59;;;;;;;;;5.33;5.33;;;;;14.55;100.00;100904.81;6301169;22;45387;-91
2022/05/28 02:27:27;;;;;;;;;4.33;4.33;;;;;14.60;100.00;100904.94;6301015;22;45561;-92
2022/05/28 02:29:52;;;;;;;;;5.67;4.00;;;;;14.47;100.00;100890.47;6274386;22;45708;-92
2022/05/28 02:32:21;;;;;;;;;4.67;2.67;;;;;14.46;100.00;100896.56;6274860;22;45428;-93
2022/05/28 02:34:50;;;;;;;;;3.33;3.00;;;;;14.51;100.00;100905.53;6275050;22;45285;-92
2022/05/28 02:37:18;;;;;;;;;6.33;5.00;;;;;14.44;100.00;100891.25;6274354;22;48498;-93
2022/05/28 02:39:43;;;;;;;;;4.67;4.67;;;;;14.35;100.00;100885.69;6274474;22;45259;-92
2022/05/28 02:42:09;;;;;;;;;4.33;3.33;;;;;14.43;100.00;100896.50;6274230;22;45275;-92
2022/05/28 02:44:34;;;;;;;;;7.67;3.33;;;;;14.39;100.00;100895.50;6274298;22;45351;-92
2022/05/28 02:47:00;;;;;;;;;5.33;2.33;;;;;14.36;100.00;100887.47;6301197;22;45412;-92
2022/05/28 02:49:26;;;;;;;;;5.33;5.33;;;;;14.29;100.00;100884.66;6274225;22;45624;-93
2022/05/28 02:51:52;;;;;;;;;5.00;4.67;;;;;14.33;100.00;100900.59;6274748;22;45362;-93
2022/05/28 02:54:19;;;;;;;;;4.67;4.33;;;;;14.30;100.00;100896.97;6284005;22;45571;-91
2022/05/28 02:56:44;;;;;;;;;8.33;7.00;;;;;14.23;100.00;100884.44;6309713;22;45728;-91
2022/05/28 02:59:10;;;;;;;;;9.00;4.33;;;;;14.23;100.00;100884.44;6308204;22;45352;-92
2022/05/28 03:01:35;;;;;;;;;8.00;4.00;;;;;14.17;100.00;100879.84;6370631;22;45730;-92
2022/05/28 03:04:03;;;;;;;;;4.00;4.00;;;;;14.13;100.00;100877.06;6369048;22;45370;-93
2022/05/28 03:06:29;;;;;;;;;4.00;2.67;;;;;14.16;100.00;100885.09;6364427;22;47133;-91
2022/05/28 03:08:55;;;;;;;;;4.00;4.00;;;;;14.13;100.00;100879.69;6365218;22;45947;-93
2022/05/28 03:11:20;;;;;;;;;4.33;3.00;;;;;14.14;100.00;100889.44;6364665;22;45457;-92
2022/05/28 03:13:46;;;;;;;;;8.33;4.33;;;;;14.12;100.00;100894.63;6364821;22;45489;-91
2022/05/28 03:16:12;;;;;;;;;9.67;4.33;;;;;14.03;100.00;100882.06;6365897;22;48141;-92
2022/05/28 03:18:37;;;;;;;;;6.00;4.00;;;;;14.11;100.00;100906.06;6364405;22;45514;-93
2022/05/28 03:21:04;;;;;;;;;6.33;5.00;;;;;14.02;100.00;100892.56;6365089;22;45370;-93
2022/05/28 03:23:30;;;;;;;;;3.67;3.67;;;;;14.05;100.00;100901.47;6365505;22;45393;-93
2022/05/28 03:25:56;;;;;;;;;5.00;5.00;;;;;13.96;100.00;100885.34;6364596;22;46921;-93
2022/05/28 03:28:21;;;;;;;;;3.67;3.67;;;;;13.96;100.00;100888.88;6364042;22;45794;-91
2022/05/28 03:30:47;;;;;;;;;7.33;4.67;;;;;13.95;100.00;100887.06;6367657;22;45461;-92
2022/05/28 03:33:12;;;;;;;;;4.67;4.33;;;;;13.89;100.00;100888.63;6364971;22;45456;-91
2022/05/28 03:35:40;;;;;;;;;7.67;4.00;;;;;13.91;100.00;100897.47;6391815;22;46854;-92
2022/05/28 03:38:06;;;;;;;;;3.33;3.33;;;;;13.93;100.00;100906.34;6391270;22;45408;-92
2022/05/28 03:40:31;;;;;;;;;10.33;5.00;;;;;13.89;100.00;100901.81;6363825;22;45627;-91
2022/05/28 03:42:57;;;;;;;;;6.33;4.00;;;;;13.83;100.00;100900.75;6372091;22;45343;-92
2022/05/28 03:45:24;;;;;;;;;9.00;5.00;;;;;13.80;100.00;100900.63;6373305;22;47104;-93
2022/05/28 03:47:50;;;;;;;;;3.33;1.67;;;;;13.76;100.00;100889.94;6374350;22;45327;-92
2022/05/28 03:50:15;;;;;;;;;11.33;6.00;;;;;13.78;100.00;100904.97;6374677;22;45673;-93
2022/05/28 03:52:40;;;;;;;;;5.00;5.00;;;;;13.69;100.00;100899.34;6368725;22;45391;-93
2022/05/28 03:55:06;;;;;;;;;5.67;4.33;;;;;13.73;100.00;100907.47;6367051;22;45413;-93
2022/05/28 03:57:32;;;;;;;;;5.00;3.00;;;;;13.68;100.00;100911.69;6365031;22;45748;-93
2022/05/28 03:59:59;;;;;;;;;5.00;4.00;;;;;13.72;100.00;100923.22;6364948;22;45602;-93
2022/05/28 04:02:25;;;;;;;;;9.33;7.00;;;;;13.66;100.00;100915.97;6364849;22;45519;-93
2022/05/28 04:04:51;;;;;;;;;9.67;8.67;;;;;13.61;100.00;100915.81;6364207;22;47237;-93
2022/05/28 04:07:17;;;;;;;;;6.33;6.33;;;;;13.67;100.00;100932.69;6364795;22;45315;-91
2022/05/28 04:09:42;;;;;;;;;5.33;4.00;;;;;13.69;100.00;100936.28;6365439;22;45719;-93
2022/05/28 04:12:08;;;;;;;;;5.00;5.00;;;;;13.62;100.00;100928.16;6363142;22;45530;-92
2022/05/28 04:14:34;;;;;;;;;7.33;5.00;;;;;13.62;100.00;100930.81;6365183;22;46864;-92
2022/05/28 04:16:59;;;;;;;;;4.00;4.00;;;;;13.59;100.00;100932.44;6365516;22;45397;-92
2022/05/28 04:19:24;;;;;;;;;6.00;6.00;;;;;13.65;100.00;100942.31;6364326;22;45383;-92
2022/05/28 04:21:50;;;;;;;;;5.00;5.00;;;;;13.59;100.00;100935.97;6364436;22;45568;-92
2022/05/28 04:24:15;;;;;;;;;9.67;6.33;;;;;13.56;100.00;100929.63;6365024;22;48408;-92
2022/05/28 04:26:41;;;;;;;;;4.33;4.33;;;;;13.66;100.00;100945.00;6364013;22;45865;-92
2022/05/28 04:29:08;;;;;;;;;9.00;7.00;;;;;13.71;100.00;100947.81;6366910;22;45357;-93
2022/05/28 04:31:33;;;;;;;;;10.00;7.67;;;;;13.66;100.00;100939.72;6370302;22;45243;-93
2022/05/28 04:33:59;;;;;;;;;9.67;8.67;;;;;13.61;100.00;100918.44;6370777;22;47008;-93
2022/05/28 04:36:24;;;;;;;;;8.00;5.33;;;;;13.74;100.00;100948.81;6373473;22;45448;-93
2022/05/28 04:38:50;;;;;;;;;9.33;6.67;;;;;13.74;100.00;100932.06;6375100;22;45651;-93
2022/05/28 04:41:15;;;;;;;;;5.33;5.33;;;;;13.79;100.00;100933.13;6369276;22;45335;-94
2022/05/28 04:43:40;;;;;;;;;8.00;7.00;;;;;13.85;100.00;100940.38;6364551;22;46859;-93
2022/05/28 04:46:06;;;;;;;;;5.00;5.00;;;;;13.88;100.00;100942.22;6391635;22;45388;-93
2022/05/28 04:48:32;;;;;;;;;5.67;5.67;;;;;13.96;100.00;100944.28;6365056;22;45991;-93
2022/05/28 04:50:57;;;;;;;;;6.00;4.33;;;;;13.95;100.00;100925.75;6364929;22;45209;-93
2022/05/28 04:53:23;;;;;;;;;10.33;9.67;;;;;14.05;100.00;100932.22;6364881;22;47727;-93
2022/05/28 04:55:48;;;;;;;;;5.00;5.00;;;;;14.07;100.00;100933.22;6365086;22;45891;-92
2022/05/28 04:58:14;;;;;;;;;8.00;5.67;;;;;14.18;100.00;100947.66;6364081;22;45350;-93
2022/05/28 05:00:41;;;;;;;;;5.67;4.00;;;;;14.18;100.00;100933.53;6364510;22;45310;-93
2022/05/28 05:03:07;;;;;;;;;8.00;5.00;;;;;14.21;100.00;100941.56;6364901;22;47067;-94
2022/05/28 05:05:32;;;;;;;;;5.00;5.00;;;;;14.09;100.00;100915.69;6365175;22;45420;-94
2022/05/28 05:07:58;;;;;;;;;12.33;7.67;;;;;14.15;100.00;100921.16;6369817;22;45460;-92
2022/05/28 05:10:23;;;;;;;;;7.67;6.00;;;;;14.16;100.00;100914.13;6405084;22;45381;-93
2022/05/28 05:12:49;;;;;;;;;6.00;5.33;;;;;14.29;100.00;100942.75;6380065;22;47985;-92
2022/05/28 05:15:18;;;;;;;;;4.67;4.67;;;;;14.15;100.00;100915.88;6378211;22;45334;-93
2022/05/28 05:17:44;;;;;;;;;5.00;4.67;;;;;14.26;100.00;100929.44;6379649;22;45631;-92
2022/05/28 05:20:12;;;;;;;;;4.67;4.67;;;;;14.16;100.00;100915.03;6383581;22;45402;-93
2022/05/28 05:22:39;;;;;;;;;8.00;6.67;;;;;14.23;100.00;100926.69;6357649;22;46967;-93
2022/05/28 05:25:05;;;;;;;;;8.67;5.33;;;;;14.27;100.00;100936.53;6357116;22;45292;-93
2022/05/28 05:27:31;;;;;;;;;6.33;5.00;;;;;14.16;100.00;100920.31;6384344;22;45760;-91
2022/05/28 05:29:58;;;;;;;;;8.67;5.67;;;;;14.18;100.00;100917.72;6380855;22;45233;-92
2022/05/28 05:32:24;;;;;;;;;8.00;7.67;;;;;14.14;100.00;100915.81;6378833;22;48017;-92
2022/05/28 05:34:50;;;;;;;;;8.67;8.67;;;;;14.31;100.00;100937.50;6379386;22;46130;-92
2022/05/28 05:37:20;;;;;;;;;9.00;5.00;;;;;14.23;100.00;100925.78;6381196;22;46293;-93
2022/05/28 05:39:45;;;;;;;;;12.00;6.67;;;;;14.28;100.00;100916.25;6380929;22;45259;-91
2022/05/28 05:42:14;;;;;;;;;12.67;8.00;;;;;14.28;100.00;100911.88;6379250;22;47084;-94
2022/05/28 05:44:40;;;;;;;;;9.33;6.33;;;;;14.38;100.00;100935.97;6353787;22;45997;-93
2022/05/28 05:47:18;;;;;;;;;7.00;6.33;;;;;14.38;100.00;100928.06;6378381;22;45326;-93
2022/05/28 05:49:45;;;;;;;;;8.33;8.33;;;;;14.41;100.00;100922.84;6355349;22;45209;-93
2022/05/28 05:52:10;;;;;;;;;6.67;5.00;;;;;14.53;100.00;100939.09;6379164;22;47978;-92
2022/05/28 05:54:35;;;;;;;;;6.67;6.67;;;;;14.53;100.00;100928.50;6378610;22;45441;-92
2022/05/28 05:57:02;;;;;;;;;11.00;7.33;;;;;14.61;100.00;100922.59;6372115;22;45761;-96
2022/05/28 05:59:29;;;;;;;;;8.33;7.33;;;;;14.84;100.00;100933.00;6355846;22;44774;-96
2022/05/28 06:01:54;;;;;;;;;10.67;7.67;;;;;14.92;100.00;100930.63;6381140;22;47239;-96
2022/05/28 06:04:20;;;;;;;;;8.00;6.67;;;;;14.99;100.00;100916.72;6385242;22;44945;-96
2022/05/28 06:06:45;;;;;;;;;5.00;5.00;;;;;14.95;100.00;100894.59;6387579;22;45143;-96
2022/05/28 06:09:11;;;;;;;;;8.67;5.67;;;;;15.16;100.00;100916.31;6386632;22;45588;-96
2022/05/28 06:11:38;;;;;;;;;10.00;7.00;;;;;15.16;100.00;100897.81;6387224;22;45997;-95
2022/05/28 06:14:05;;;;;;;;;9.33;6.67;;;;;15.23;100.00;100888.31;6385707;22;44772;-96
2022/05/28 06:16:33;;;;;;;;;9.33;5.00;;;;;15.29;100.00;100883.19;6385459;22;45198;-96
2022/05/28 06:18:59;;;;;;;;;5.33;5.33;;;;;15.38;100.00;100874.63;6382634;22;45262;-95
2022/05/28 06:21:27;;;;;;;;;10.00;9.00;;;;;15.48;100.00;100863.44;6382431;22;46854;-95
2022/05/28 06:23:53;;;;;;;;;8.67;8.67;;;;;15.67;100.00;100881.56;6384489;22;45276;-96
2022/05/28 06:26:18;;;;;;;;;11.00;6.67;;;;;15.69;100.00;100867.53;6381934;22;45235;-96
2022/05/28 06:28:44;;;;;;;;;9.33;7.67;;;;;15.79;100.00;100868.66;6383388;22;45279;-96
2022/05/28 06:31:14;;;;;;;;;4.67;4.67;;;;;15.90;100.00;100858.31;6384512;22;46935;-96
2022/05/28 06:33:40;;;;;;;;;8.67;5.67;;;;;16.03;100.00;100856.00;6382587;22;45262;-95
2022/05/28 06:36:08;;;;;;;;;3.00;3.00;;;;;16.13;100.00;100847.44;6382331;22;44763;-96
2022/05/28 06:38:34;;;;;;;;;6.67;6.33;;;;;16.30;100.00;100862.84;6380705;22;45163;-95
2022/05/28 06:41:00;;;;;;;;;4.33;4.33;;;;;16.44;100.00;100865.78;6379883;22;48119;-95
2022/05/28 06:43:26;;;;;;;;;5.00;5.00;;;;;16.52;100.00;100858.00;6374910;22;45002;-93
2022/05/28 06:45:53;;;;;;;;;4.33;4.33;;;;;16.61;100.00;100852.94;6380523;22;45406;-94
2022/05/28 06:48:18;;;;;;;;;9.67;7.33;;;;;16.71;100.00;100851.38;6383891;22;45303;-96
2022/05/28 06:51:02;;;;;;;;;6.67;6.33;;;;;16.80;100.00;100848.03;6380192;22;46014;-95
2022/05/28 06:53:41;;;;;;;;;10.00;6.00;;;;;16.95;100.00;100846.56;6386136;22;45207;-92
2022/05/28 06:56:08;;;;;;;;;9.00;6.67;;;;;17.05;100.00;100845.00;6385471;22;44710;-96
2022/05/28 06:58:34;;;;;;;;;13.67;8.00;;;;;17.11;100.00;100846.88;6385840;22;45263;-96
2022/05/28 07:06:11;;;;;;;;;10.67;7.33;;;;;17.14;100.00;100826.59;6410311;22;45315;-93
2022/05/28 07:08:37;;;;;;;;;6.67;6.67;;;;;17.18;100.00;100824.94;6416249;22;45380;-94
2022/05/28 07:11:05;;;;;;;;;9.00;7.33;;;;;17.22;100.00;100825.88;6417222;22;45418;-95
2022/05/28 07:13:32;;;;;;;;;8.67;8.33;;;;;17.34;100.00;100823.50;6388613;22;44644;-92
2022/05/28 07:15:58;;;;;;;;;10.00;8.67;;;;;17.46;100.00;100822.81;6390063;22;45294;-94
2022/05/28 07:18:24;;;;;;;;;11.00;7.33;;;;;17.59;100.00;100818.63;6415954;22;45251;-94
2022/05/28 07:20:50;;;;;;;;;9.33;6.00;;;;;17.70;100.00;100816.16;6386503;22;46970;-95
2022/05/28 07:23:23;;;;;;;;;7.67;6.00;;;;;17.83;100.00;100813.69;6414919;22;45323;-95
2022/05/28 07:25:49;;;;;;;;;8.33;5.00;;;;;17.96;100.00;100810.34;6414428;22;45283;-95
2022/05/28 07:28:33;;;;;;;;;7.33;6.00;;;;;18.06;100.00;100811.41;6385361;22;45295;-95
2022/05/28 07:31:02;;;;;;;;;8.67;7.00;;;;;18.19;100.00;100799.16;6387891;22;47827;-95
2022/05/28 07:33:30;;;;;;;;;8.33;7.00;;;;;18.31;100.00;100798.50;6416580;22;45265;-95
2022/05/28 07:35:57;;;;;;;;;11.00;8.67;;;;;18.40;100.00;100794.19;6386585;22;44589;-94
2022/05/28 07:38:24;;;;;;;;;8.33;7.00;;;;;18.49;100.00;100789.00;6416747;22;45377;-95
2022/05/28 07:40:50;;;;;;;;;8.33;7.00;;;;;18.58;100.00;100792.66;6412352;22;45440;-95
2022/05/28 07:43:16;;;;;;;;;7.33;6.00;;;;;18.66;100.00;100790.97;6385313;22;44809;-93
2022/05/28 07:45:43;;;;;;;;;7.00;6.67;;;;;18.76;100.00;100787.53;6385554;22;45233;-95
2022/05/28 07:48:09;;;;;;;;;8.00;7.00;;;;;18.85;100.00;100788.53;6414583;22;45174;-95
2022/05/28 07:50:35;;;;;;;;;7.00;5.33;;;;;18.95;100.00;100787.75;6414278;22;45303;-95
2022/05/28 07:53:01;;;;;;;;;10.67;7.00;;;;;19.04;100.00;100788.75;6413998;22;44623;-94
2022/05/28 07:55:28;;;;;;;;;7.00;6.00;;;;;19.12;100.00;100783.50;6383903;22;45235;-94
2022/05/28 07:57:53;;;;;;;;;10.33;9.67;;;;;19.15;100.00;100792.41;6413878;22;45244;-95
2022/05/28 08:00:19;;;;;;;;;14.00;7.67;;;;;19.18;100.00;100779.16;6413498;22;45868;-94
2022/05/28 08:02:44;;;;;;;;;6.67;5.00;;;;;19.26;100.00;100775.69;6414909;22;45264;-95
2022/05/28 08:05:10;;;;;;;;;10.00;6.33;;;;;19.38;100.00;100767.81;6382976;22;45250;-95
2022/05/28 08:07:36;;;;;;;;;10.33;7.00;;;;;19.51;100.00;100771.47;6385155;22;44819;-92
2022/05/28 08:10:02;;;;;;;;;9.33;7.00;;;;;19.63;100.00;100772.47;6387463;22;46871;-95
2022/05/28 08:12:28;;;;;;;;;8.00;7.33;;;;;19.74;100.00;100780.56;6385680;22;45417;-96
2022/05/28 08:14:53;;;;;;;;;7.33;7.00;;;;;19.84;100.00;100782.38;6410461;22;45314;-94
2022/05/28 08:17:18;;;;;;;;;7.00;7.00;;;;;19.93;100.00;100780.66;6411838;22;50333;-95
2022/05/28 08:19:43;;;;;;;;;7.67;7.00;;;;;20.10;100.00;100787.00;6412342;22;47913;-94
2022/05/28 08:24:53;;;;;;;;;8.67;7.67;;;;;20.58;100.00;100790.84;6418765;22;45218;-95
2022/05/28 08:27:18;;;;;;;;;5.00;5.00;;;;;20.81;100.00;100790.03;6386000;22;45525;-93
2022/05/28 08:29:44;;;;;;;;;7.33;6.33;;;;;20.94;100.00;100792.72;6387047;22;55882;-95
2022/05/28 08:32:09;;;;;;;;;9.00;7.67;;;;;21.04;100.00;100797.25;6384884;22;45410;-95
2022/05/28 08:34:35;;;;;;;;;8.00;7.33;;;;;21.10;100.00;100802.59;6411692;22;45322;-94
2022/05/28 08:37:00;;;;;;;;;6.67;6.33;;;;;21.17;100.00;100798.16;6412722;22;45069;-95
2022/05/28 08:39:26;;;;;;;;;9.67;7.67;;;;;21.20;100.00;100806.19;6411046;22;45028;-94
2022/05/28 08:41:57;;;;;;;;;10.33;8.00;;;;;21.21;100.00;100815.94;6410050;22;53852;-95
2022/05/28 08:44:26;;;;;;;;;7.67;5.33;;;;;21.15;100.00;100815.97;6413194;22;45205;-94
2022/05/28 08:47:01;;;;;;;;;5.67;5.67;;;;;20.96;100.00;100817.63;6409539;22;44754;-95
2022/05/28 08:49:28;;;;;;;;;5.67;5.67;;;;;20.81;100.00;100815.81;6384152;22;46058;-95
2022/05/28 08:52:16;;;;;;;;;5.00;4.00;;;;;20.91;100.00;100811.41;6386279;22;45895;-94
2022/05/28 08:54:56;;;;;;;;;7.00;5.67;;;;;21.14;100.00;100810.59;6384218;22;44830;-95
2022/05/28 08:57:30;;;;;;;;;7.00;7.00;;;;;21.29;100.00;100804.38;6410543;22;44731;-95
2022/05/28 09:00:03;;;;;;;;;8.00;6.00;;;;;21.49;100.00;100816.91;6413276;22;45173;-94
2022/05/28 09:02:42;;;;;;;;;6.00;4.33;;;;;21.57;100.00;100835.59;6384732;22;45233;-95
2022/05/28 09:05:23;;;;;;;;;8.00;6.33;;;;;21.61;100.00;100821.34;6412301;22;45268;-94
2022/05/28 09:07:49;;;;;;;;;6.00;5.67;;;;;21.62;100.00;100824.00;6383645;22;45376;-95
2022/05/28 09:10:15;;;;;;;;;9.33;6.67;;;;;21.50;100.00;100837.34;6418541;22;45445;-96
2022/05/28 09:15:15;;;;;;;;;6.33;5.00;;;;;21.24;100.00;100824.84;6354722;22;45214;-95
2022/05/28 09:17:47;;;;;;;;;8.33;6.00;;;;;21.27;100.00;100807.06;6355240;22;45201;-95
2022/05/28 09:20:20;;;;;;;;;5.00;4.00;;;;;21.51;100.00;100807.09;6350161;22;45148;-95
2022/05/28 09:22:46;;;;;;;;;5.67;5.33;;;;;21.71;100.00;100806.22;6347315;22;45277;-94
2022/05/28 09:25:16;;;;;;;;;4.33;4.33;;;;;22.02;100.00;100818.69;6347501;22;44629;-94
2022/05/28 09:27:42;;;;;;;;;7.67;6.33;;;;;22.24;100.00;100824.00;6319426;22;44895;-95
2022/05/28 09:30:13;;;;;;;;;4.00;4.00;;;;;22.37;100.00;100847.13;6320143;22;46002;-94
2022/05/28 09:32:50;;;;;;;;;3.33;3.33;;;;;22.55;100.00;100845.28;6325904;22;45235;-95
2022/05/28 09:36:00;;;;;;;;;10.00;6.00;;;;;22.72;100.00;100861.34;6316509;22;45304;-95
2022/05/28 09:38:35;;;;;;;;;5.33;5.00;;;;;22.74;100.00;100862.22;6319305;22;45192;-95
2022/05/28 09:41:16;;;;;;;;;5.00;5.00;;;;;22.69;99.80;100855.97;6348806;22;45464;-96
2022/05/28 09:44:01;;;;;;;;;5.00;5.00;;;;;22.66;100.00;100856.84;6318361;22;45285;-96
2022/05/28 09:46:30;;;;;;;;;6.00;5.00;;;;;22.69;99.80;100849.72;6324599;22;44669;-96
2022/05/28 09:49:12;;;;;;;;;10.00;5.67;;;;;22.78;98.87;100863.09;6355314;22;44674;-94
2022/05/28 09:51:38;;;;;;;;;5.00;4.00;;;;;22.70;97.97;100879.19;6318693;22;46009;-94
2022/05/28 09:54:20;;;;;;;;;6.00;4.67;;;;;22.46;98.13;100881.00;6322685;22;45266;-95
2022/05/28 09:56:56;;;;;;;;;4.00;4.00;;;;;22.68;99.69;100848.81;6302197;22;45308;-95
2022/05/28 09:59:29;;;;;;;;;5.00;5.00;;;;;23.91;100.00;100815.97;6354297;22;44759;-95
2022/05/28 10:02:07;;;;;;;;;8.00;6.00;;;;;24.16;98.31;100867.56;6322086;22;46184;-95
2022/05/28 10:04:53;;;;;;;;;5.33;4.33;;;;;24.19;97.01;100880.94;6320263;22;45436;-96
2022/05/28 10:07:34;;;;;;;;;4.33;3.67;;;;;26.57;98.36;100877.66;6320598;22;45357;-96
2022/05/28 10:10:10;;;;;;;;;4.00;4.00;;;;;28.12;96.46;100911.91;6346812;22;45322;-96
2022/05/28 10:12:35;;;;;;;;;6.00;5.00;;;;;27.69;91.88;101054.06;6347727;22;45207;-96
2022/05/28 10:15:06;;;;;;;;;5.00;5.00;;;;;26.90;90.00;101330.28;6371970;22;56971;-96
2022/05/28 10:17:33;;;;;;;;;8.00;4.00;;;;;26.60;90.66;101397.97;6373410;22;45304;-96
2022/05/28 10:20:02;;;;;;;;;5.67;4.00;;;;;27.63;89.85;101456.78;6379565;22;45321;-96
2022/05/28 10:22:29;;;;;;;;;6.67;5.33;;;;;27.56;88.43;101515.31;6381303;22;45383;-96
2022/05/28 10:24:54;;;;;;;;;4.00;3.00;;;;;29.30;91.68;101465.53;6379383;22;46232;-96
2022/05/28 10:27:25;;;;;;;;;4.00;3.67;;;;;32.29;91.05;101529.56;6347646;22;45401;-96
2022/05/28 10:29:52;;;;;;;;;19.50;18.00;;;;;34.98;88.32;101633.59;6340960;22;45211;-86
2022/05/28 10:32:51;;;;;;;;;5.00;5.00;;;;;37.86;83.62;101760.78;6311547;22;45982;-94
2022/05/28 10:35:25;;;;;;;;;3.00;2.00;;;;;38.11;75.37;101836.19;6195500;22;45421;-96
2022/05/28 10:37:50;;;;;;;;;4.33;3.33;;;;;37.86;71.90;101866.75;6193637;22;45288;-94
2022/05/28 10:40:15;;;;;;;;;3.00;2.00;;;;;39.45;71.99;101856.06;6192047;22;45249;-93
2022/05/28 10:42:41;;;;;;;;;2.67;2.00;;;;;40.69;68.18;101877.72;6190150;22;47137;-95
2022/05/28 10:45:08;;;;;;;;;3.00;3.00;;;;;40.03;64.00;101888.22;6194395;22;46014;-96
2022/05/28 10:47:52;;;;;;;;;5.67;3.67;;;;;38.43;61.68;101906.63;6230332;22;44789;-94
2022/05/28 10:50:52;;;;;;;;;3.00;3.00;;;;;36.41;61.05;101886.63;6196014;22;44824;-95
2022/05/28 10:53:53;;;;;;;;;16.33;13.00;;;;;34.85;61.16;101892.28;6189595;22;46207;-94
2022/05/28 10:56:45;;;;;;;;;5.00;4.00;;;;;35.77;63.21;101869.34;6215368;22;45348;-96
2022/05/28 10:59:32;;;;;;;;;3.67;3.00;;;;;36.58;61.29;101873.97;6187675;22;45348;-94
2022/05/28 11:02:18;;;;;;;;;5.00;3.67;;;;;39.12;62.39;101871.72;6187583;22;45524;-93
2022/05/28 11:04:59;;;;;;;;;2.00;2.00;;;;;41.78;61.10;101872.22;6193788;22;47240;-95
2022/05/28 11:07:42;;;;;;;;;3.00;2.67;;;;;44.40;60.28;101879.25;6192546;22;45347;-96
2022/05/28 11:10:07;;;;;;;;;2.00;2.00;;;;;44.45;54.26;101882.50;6217309;22;45268;-96
2022/05/28 11:12:48;;;;;;;;;3.00;1.00;;;;;42.40;51.62;101888.94;6316299;22;45273;-95
2022/05/28 11:15:36;;;;;;;;;3.00;3.00;;;;;40.18;51.74;101891.88;6310284;22;48422;-95
2022/05/28 11:18:26;;;;;;;;;2.67;1.67;;;;;40.47;52.58;101877.25;6309411;22;45371;-96
2022/05/28 11:21:07;;;;;;;;;2.00;2.00;;;;;42.26;52.37;101883.56;6325724;22;45293;-96
2022/05/28 11:23:57;;;;;;;;;1.67;1.00;;;;;43.85;51.91;101867.94;6318327;22;45156;-95
2022/05/28 11:26:50;;;;;;;;;1.67;0.33;;;;;46.03;50.90;101878.41;6360586;22;45446;-96
2022/05/28 11:29:35;;;;;;;;;3.00;2.33;;;;;46.63;46.74;101871.16;6379706;22;45242;-96
2022/05/28 11:32:07;;;;;;;;;2.00;1.00;;;;;44.55;46.25;101877.06;6377983;22;45379;-93
2022/05/28 11:34:47;;;;;;;;;2.00;2.00;;;;;42.75;44.68;101878.16;6379478;22;44795;-94
2022/05/28 11:37:21;;;;;;;;;2.00;1.00;;;;;42.81;45.47;101871.31;6386667;22;46607;-96
2022/05/28 11:40:10;;;;;;;;;1.00;1.00;;;;;43.29;46.17;101872.28;6382654;22;45295;-96